Fado — MVXL2 — position and weather

sailwx.info

Track history (hours):
 
Tides and Currents Weather Stations Pressure Air Temp Water Temp Dewpoint Dewpoint Depression Visibility Wind Speed Wind Dir Waves Ship Positions

Fado

Last reported at 2017-Oct-31 08:40 UTC. Time now 2017-Dec-16 12:59 UTC.
Position N 44°05' E 009°52'.
Warning: this ship's position is 46 days out of date.

Length 30 m.

Type: Sailing vessel. MMSI: 235057245.

Date/timePositionNaut miles runAvg speedWind from/ knotsBaromVisibWave heightAir tempDewpointWater temp
2017-Oct-31 08:40N 44°05' E 009°52'0 0.0
2017-Oct-31 08:28N 44°05' E 009°52'0 0.0
2017-Oct-31 07:58N 44°05' E 009°52'0 0.0
2017-Oct-31 07:25N 44°05' E 009°52'0 0.0
2017-Oct-31 06:58N 44°05' E 009°52'0 0.0
2017-Oct-31 06:28N 44°05' E 009°52'0 0.0
2017-Oct-31 05:55N 44°05' E 009°52'0 0.0
2017-Oct-31 05:25N 44°05' E 009°52'0 0.0
2017-Oct-31 04:58N 44°05' E 009°52'0 0.0
2017-Oct-31 04:25N 44°05' E 009°52'0 0.0
2017-Oct-31 03:58N 44°05' E 009°52'0 0.0
2017-Oct-31 03:28N 44°05' E 009°52'1 1.8
2017-Oct-31 02:59N 44°05' E 009°53'4 7.8
2017-Oct-31 02:30N 44°01' E 009°55'4 7.9
2017-Oct-31 02:00N 43°58' E 009°57'4 7.8
2017-Oct-31 01:30N 43°54' E 009°58'4 8.1
2017-Oct-31 01:00N 43°50' E 010°00'4 8.3
2017-Oct-31 00:30N 43°46' E 010°02'4 8.3
2017-Oct-31 00:00N 43°42' E 010°04'4 8.3
2017-Oct-30 23:29N 43°38' E 010°04'4 8.0
2017-Oct-30 22:57N 43°34' E 010°04'4 8.0
2017-Oct-30 22:30N 43°30' E 010°06'5 8.4
2017-Oct-30 21:54N 43°26' E 010°09'236 7.1
2017-Oct-29 12:45N 40°46' E 014°02'  
Track history (hours):
 
Tides and Currents Weather Stations Pressure Air Temp Water Temp Dewpoint Dewpoint Depression Visibility Wind Speed Wind Dir Waves Ship Positions

Fado

Last reported at 2017-Oct-31 08:40 UTC. Time now 2017-Dec-16 12:59 UTC.
Position N 44°05' E 009°52'.
Warning: this ship's position is 46 days out of date.

Length 30 m.

Type: Sailing vessel. MMSI: 235057245.

Date/timePositionNaut miles runAvg speedWind from/ knotsBaromVisibWave heightAir tempDewpointWater temp
2017-Oct-31 08:40N 44°05' E 009°52'0 0.0
2017-Oct-31 08:28N 44°05' E 009°52'0 0.0
2017-Oct-31 07:58N 44°05' E 009°52'0 0.0
2017-Oct-31 07:25N 44°05' E 009°52'0 0.0
2017-Oct-31 06:58N 44°05' E 009°52'0 0.0
2017-Oct-31 06:28N 44°05' E 009°52'0 0.0
2017-Oct-31 05:55N 44°05' E 009°52'0 0.0
2017-Oct-31 05:25N 44°05' E 009°52'0 0.0
2017-Oct-31 04:58N 44°05' E 009°52'0 0.0
2017-Oct-31 04:25N 44°05' E 009°52'0 0.0
2017-Oct-31 03:58N 44°05' E 009°52'0 0.0
2017-Oct-31 03:28N 44°05' E 009°52'1 1.8
2017-Oct-31 02:59N 44°05' E 009°53'4 7.8
2017-Oct-31 02:30N 44°01' E 009°55'4 7.9
2017-Oct-31 02:00N 43°58' E 009°57'4 7.8
2017-Oct-31 01:30N 43°54' E 009°58'4 8.1
2017-Oct-31 01:00N 43°50' E 010°00'4 8.3
2017-Oct-31 00:30N 43°46' E 010°02'4 8.3
2017-Oct-31 00:00N 43°42' E 010°04'4 8.3
2017-Oct-30 23:29N 43°38' E 010°04'4 8.0
2017-Oct-30 22:57N 43°34' E 010°04'4 8.0
2017-Oct-30 22:30N 43°30' E 010°06'5 8.4
2017-Oct-30 21:54N 43°26' E 010°09'236 7.1
2017-Oct-29 12:45N 40°46' E 014°02'  

Dump ship's entire track history